Pinecrest, CA

9:40 PM PDT on August 29, 2014 (GMT -0700)
RAWS ARB4 CA US | Change Station
CLOSE
Current Station
Personal Weather Station
Location: Strawberry, CA
Elevation: 5675 ft
Nearby Weather Stations

Elev 5675 ft 38.19 °N, 120.01 °W | Updated 47 minutes ago

Mostly Cloudy
Mostly Cloudy
63 °F
Feels Like 63 °F
N
2
Wind Variable Wind from SSE
Gusts 3.0 mph

Today
High -- | Low -- °F
--% Chance of Precip.
Yesterday
High -- | Low -- °F
Precip. -- in
6:27 AM 7:33 PM
Waxing Crescent, 19% visible
Pressure 29.91 in
Visibility -9999.0 miles
Clouds Overcast 11000 ft
Dew Point 36 °F
Humidity 37%
Rainfall -999.00 in
Snow Depth Not available.
UV 0 out of 12
Pollen 8.60 out of 12
Ozone Good
Flu Activity Not available.
METAR KBAN 300352Z AUTO 29007KT OVC110 21/M03 A3021 RMK AO2 SLP129 T02061033 $

More Conditions Fewer Conditions

Pressure 29.91 in
Visibility -9999.0 miles
Clouds Overcast 11000 ft
Dew Point 36 °F
Humidity 37%
Rainfall -999.00 in
Snow Depth Not available.
UV 0 out of 12
Pollen 8.60 out of 12
Ozone Good
Flu Activity Not available.
METAR KBAN 300352Z AUTO 29007KT OVC110 21/M03 A3021 RMK AO2 SLP129 T02061033 $

More Conditions Fewer Conditions

10-Day Weather Forecast

Almanac

Astronomy

Aug. 29, 2014 Rise Set
Actual Time 6:27 AM PDT 7:33 PM PDT
Civil Twilight 5:59 AM PDT 8:01 PM PDT
Nautical Twilight 5:27 AM PDT 8:33 PM PDT
Astronomical Twilight 4:53 AM PDT 9:06 PM PDT
Moon 10:17 AM PDT (8/29) 9:38 PM PDT (8/29)
Length of Visible Light 14h 01m
Length of Day
13h 06m
Tomorrow will be 2m 20s shorter.
Waxing Crescent, 19% of the Moon is Illuminated
Aug 30
Waxing Crescent
Sep 2
First Quarter
Sep 8
Full
Sep 15
Last Quarter
Sep 24
New

Today's Extremes

State Highs State Lows

Community

WunderPhotos

Upload Photos

1,748,454 photos uploaded!

Nearby

Air Quality

  Air Quality AQ Index Pollutant
Yesterday Unhealthy for Sensitive Groups
OZONE
Current Good
OZONE
Friday Moderate
OZONE
Saturday Moderate
OZONE
Sunday Moderate
OZONE
Monday Moderate
OZONE
Tuesday Moderate
OZONE
Wednesday Moderate
OZONE

Snow Depth

Station Depth Elevation
Leavitt Lake 0 in 9400 ft
Leavitt Meadows 0 in 7200 ft
Blue Lakes 0 in 8000 ft
Summit Meadow 0 in 9122 ft
Monitor Pass 0 in 8350 ft

Earthquake Activity

City Distance Mag. Time & Date
Ridgemark, California 126 miles 3.5 4:32 PM PDT
2014-08-29
Ridgemark, California 126 miles 3.0 2:44 PM PDT
2014-08-29
Orange Cove, California 115 miles 2.5 7:48 AM PDT
2014-08-29
Minimum magnitude displayed is 2.5.

Coastal Water Temperatures

Place Temperature
No Stations Reporting

Nearby Weather Stations